Hlavní strana
METAR-TAF:

METAR-TAF

Letiště :

Teherán, Írán

Letiště Teherán-Mehrabád

zeměpisná šířka: 35-41N, zeměpisná délka: 051-21E, výška: 1204 m

Aktuální stav počasí

Zpráva byla vytvořena před 18 minutami, v 22:00 UTC
Bezvětří
Teplota 16°C
Vlhkost vzduchu 39%
Tlak 1019 hPa
Viditelnost 10 km a více
Skoro jasno ve výšce 10000 ft

METAR: OIII 252200Z 00000KT 9999 FEW100 16/02 Q1019 A3010 NOSIG

Čas: 02:48 (22:18 UTC)

Předpověď počasí

Zpráva byla vytvořena před 4 hodinami a 48 minutami, v 17:30 UTC
Předpověď platná od 25 v 18 UTC do 26 v 24 UTC
Východojihovýchodní vítr 8 kt
Viditelnost: 7000 m
Dočasný
od 26 v 06 UTC do 26 v 12 UTC
Skoro jasno ve výšce 3500 ft, Cumulonimbus.
Polojasno ve výšce 4000 ft
Oblačno až skoro zataženo ve výšce 10000 ft
Změna
od 26 v 21 UTC do 26 v 23 UTC
Polojasno ve výšce 3000 ft
Oblačno až skoro zataženo ve výšce 10000 ft

TAF: OIII 251730Z 2518/2624 11004MPS 7000 NSC TEMPO 2606/2612 FEW035CB SCT040 BKN100 BECMG 2621/2623 SCT030 BKN100

Stav a předpovědi počasí z více než 4 000 letišť (zprávy METAR a TAF).

Červené a žluté tečky na mapě představují dostupné meteorologické stanice.

Když kurzor umístíte na tečku, zobrazí se název stanice.

Pak kliknutím zobrazíte stav a předpověď počasí.

Chcete-li změnit mapu, kliknutím na zelené tlačítko se znaménkem +mapu přiblížíte, kliknutím na zelené tlačítko se znaménkem – mapu oddálíte a kliknutím na zelené šipky přejdete na sousední mapy.


METAR-TAF: